createdAt,value
2017-12-26T00:00:04.469Z,17.60
2017-12-26T00:02:32.630Z,17.60
2017-12-26T00:05:00.805Z,17.60
2017-12-26T00:07:28.995Z,17.60
2017-12-26T00:09:58.132Z,17.60
2017-12-26T00:12:26.295Z,17.60
2017-12-26T00:14:54.462Z,17.60
2017-12-26T00:17:22.626Z,17.60
2017-12-26T00:19:50.916Z,17.60
2017-12-26T00:22:19.263Z,17.60
2017-12-26T00:24:47.634Z,17.60
2017-12-26T00:27:15.883Z,17.60
2017-12-26T00:29:44.988Z,17.60
2017-12-26T00:32:14.088Z,17.60
2017-12-26T00:34:42.480Z,17.60
2017-12-26T00:37:10.633Z,17.60
2017-12-26T00:39:39.562Z,17.60
2017-12-26T00:42:07.731Z,17.60
2017-12-26T00:44:36.136Z,17.60
2017-12-26T00:47:05.381Z,17.60
2017-12-26T00:49:33.538Z,17.60
2017-12-26T00:52:02.484Z,17.60
2017-12-26T00:54:30.746Z,17.60
2017-12-26T00:56:58.899Z,17.60
2017-12-26T00:59:27.207Z,17.60
2017-12-26T01:01:55.346Z,17.60
2017-12-26T01:04:23.517Z,17.60
2017-12-26T01:06:52.497Z,17.60
2017-12-26T01:09:21.432Z,17.60
2017-12-26T01:11:49.780Z,17.60
2017-12-26T01:14:18.703Z,17.60
2017-12-26T01:16:46.849Z,17.50
2017-12-26T01:19:15.011Z,17.50
2017-12-26T01:21:44.264Z,17.60
2017-12-26T01:24:12.555Z,17.50
2017-12-26T01:26:40.728Z,17.50
2017-12-26T01:29:08.881Z,17.60
2017-12-26T01:31:37.051Z,17.50
2017-12-26T01:34:05.224Z,17.60
2017-12-26T01:36:33.376Z,17.50
2017-12-26T01:39:01.544Z,17.50
2017-12-26T01:41:30.463Z,17.50
2017-12-26T01:43:58.615Z,17.50
2017-12-26T01:46:26.842Z,17.60
2017-12-26T01:48:55.002Z,17.50
2017-12-26T01:51:23.251Z,17.50
2017-12-26T01:53:51.564Z,17.50
2017-12-26T01:56:19.759Z,17.50
2017-12-26T01:58:47.915Z,17.60
2017-12-26T02:01:16.189Z,17.50
2017-12-26T02:03:44.487Z,17.50
2017-12-26T02:06:13.506Z,17.50
2017-12-26T02:08:41.664Z,17.50
2017-12-26T02:11:09.865Z,17.50
2017-12-26T02:13:38.018Z,17.50
2017-12-26T02:16:07.034Z,17.50
2017-12-26T02:18:35.323Z,17.50
2017-12-26T02:21:05.288Z,17.50
2017-12-26T02:23:33.460Z,17.50
2017-12-26T02:26:02.406Z,17.50
2017-12-26T02:28:30.584Z,17.50
2017-12-26T02:30:58.784Z,17.50
2017-12-26T02:33:27.083Z,17.50
2017-12-26T02:35:55.564Z,17.50
2017-12-26T02:38:23.807Z,17.50
2017-12-26T02:40:52.153Z,17.50
2017-12-26T02:43:20.330Z,17.50
2017-12-26T02:45:48.839Z,17.50
2017-12-26T02:48:17.087Z,17.50
2017-12-26T02:50:45.260Z,17.50
2017-12-26T02:53:13.419Z,17.50
2017-12-26T02:55:42.368Z,17.50
2017-12-26T02:58:10.826Z,17.50
2017-12-26T03:00:38.966Z,17.50
2017-12-26T03:03:07.896Z,17.50
2017-12-26T03:05:36.047Z,17.50
2017-12-26T03:08:04.207Z,17.50
2017-12-26T03:10:33.143Z,17.50
2017-12-26T03:13:01.418Z,17.50
2017-12-26T03:15:29.657Z,17.50
2017-12-26T03:17:58.581Z,17.50
2017-12-26T03:20:26.857Z,17.50
2017-12-26T03:22:55.010Z,17.50
2017-12-26T03:25:23.180Z,17.50
2017-12-26T03:27:52.099Z,17.50
2017-12-26T03:30:20.261Z,17.50
2017-12-26T03:32:48.422Z,17.50
2017-12-26T03:35:16.576Z,17.50
2017-12-26T03:37:45.506Z,17.50
2017-12-26T03:40:13.660Z,17.50
2017-12-26T03:42:41.819Z,17.50
2017-12-26T03:45:10.852Z,17.50
2017-12-26T03:47:39.015Z,17.50
2017-12-26T03:50:07.167Z,17.50
2017-12-26T03:52:36.108Z,17.50
2017-12-26T03:55:04.259Z,17.50
2017-12-26T03:57:32.414Z,17.50
2017-12-26T04:00:01.423Z,17.50
2017-12-26T04:02:29.569Z,17.50
2017-12-26T04:04:58.606Z,17.50
2017-12-26T04:07:27.686Z,17.50
2017-12-26T04:09:56.127Z,17.50
2017-12-26T04:12:24.295Z,17.50
2017-12-26T04:14:52.449Z,17.50
2017-12-26T04:17:20.616Z,17.40
2017-12-26T04:19:48.786Z,17.50
2017-12-26T04:22:17.039Z,17.50
2017-12-26T04:24:45.196Z,17.40
2017-12-26T04:27:14.117Z,17.40
2017-12-26T04:29:42.281Z,17.40
2017-12-26T04:32:10.426Z,17.50
2017-12-26T04:34:39.349Z,17.50
2017-12-26T04:37:07.508Z,17.40
2017-12-26T04:39:36.573Z,17.40
2017-12-26T04:42:04.260Z,17.40
2017-12-26T04:44:33.329Z,17.40
2017-12-26T04:47:01.494Z,17.40
2017-12-26T04:49:29.642Z,17.40
2017-12-26T04:51:57.807Z,17.40
2017-12-26T04:54:25.978Z,17.50
2017-12-26T04:56:54.136Z,17.50
2017-12-26T04:59:22.290Z,17.40
2017-12-26T05:01:51.284Z,17.50
2017-12-26T05:04:20.224Z,17.40
2017-12-26T05:06:48.479Z,17.40
2017-12-26T05:09:16.812Z,17.50
2017-12-26T05:11:45.276Z,17.50
2017-12-26T05:14:13.435Z,17.40
2017-12-26T05:16:41.611Z,17.40
2017-12-26T05:19:09.769Z,17.40
2017-12-26T05:21:38.018Z,17.50
2017-12-26T05:24:07.110Z,17.50
2017-12-26T05:26:36.045Z,17.50
2017-12-26T05:29:04.190Z,17.50
2017-12-26T05:31:32.341Z,17.50
2017-12-26T05:34:01.473Z,17.50
2017-12-26T05:36:29.651Z,17.50
2017-12-26T05:38:57.801Z,17.50
2017-12-26T05:41:25.968Z,17.50
2017-12-26T05:43:54.906Z,17.50
2017-12-26T05:46:23.060Z,17.50
2017-12-26T05:48:51.458Z,17.50
2017-12-26T05:51:19.649Z,17.50
2017-12-26T05:53:47.894Z,17.50
2017-12-26T05:56:16.034Z,17.50
2017-12-26T05:58:44.963Z,17.50
2017-12-26T06:01:13.137Z,17.50
2017-12-26T06:03:41.307Z,17.50
2017-12-26T06:06:09.450Z,17.50
2017-12-26T06:08:38.527Z,17.50
2017-12-26T06:11:06.687Z,17.50
2017-12-26T06:13:34.838Z,17.50
2017-12-26T06:16:03.024Z,17.50
2017-12-26T06:18:31.766Z,17.50
2017-12-26T06:21:00.177Z,17.50
2017-12-26T06:23:28.344Z,17.60
2017-12-26T06:25:56.517Z,17.50
2017-12-26T06:28:24.686Z,17.50
2017-12-26T06:30:53.123Z,17.50
2017-12-26T06:33:21.265Z,17.50
2017-12-26T06:35:49.449Z,17.50
2017-12-26T06:38:18.450Z,17.50
2017-12-26T06:40:46.631Z,17.50
2017-12-26T06:43:14.787Z,17.50
2017-12-26T06:45:42.959Z,17.50
2017-12-26T06:48:11.113Z,17.50
2017-12-26T06:50:39.264Z,17.50
2017-12-26T06:53:07.427Z,17.50
2017-12-26T06:55:36.467Z,17.50
2017-12-26T06:58:04.644Z,17.50
2017-12-26T07:00:33.011Z,17.50
2017-12-26T07:03:01.265Z,17.50
2017-12-26T07:05:29.417Z,17.50
2017-12-26T07:07:58.560Z,17.50
2017-12-26T07:10:26.703Z,17.50
2017-12-26T07:12:54.869Z,17.60
2017-12-26T07:15:23.080Z,17.50
2017-12-26T07:17:52.183Z,17.60
2017-12-26T07:20:25.898Z,17.60
2017-12-26T07:22:54.064Z,17.60
2017-12-26T07:25:22.212Z,17.60
2017-12-26T07:27:50.375Z,17.60
2017-12-26T07:30:18.532Z,17.60
2017-12-26T07:32:47.541Z,17.60
2017-12-26T07:35:15.702Z,17.50
2017-12-26T07:37:44.618Z,17.60
2017-12-26T07:40:16.178Z,17.60
2017-12-26T07:42:44.317Z,17.60
2017-12-26T07:45:13.401Z,17.60
2017-12-26T07:47:41.583Z,17.60
2017-12-26T07:50:09.735Z,17.60
2017-12-26T07:52:37.896Z,17.60
2017-12-26T07:55:06.080Z,17.60
2017-12-26T07:57:34.236Z,17.60
2017-12-26T08:00:02.859Z,17.60
2017-12-26T08:02:31.240Z,17.60
2017-12-26T08:04:59.396Z,17.60
2017-12-26T08:07:27.589Z,17.60
2017-12-26T08:09:55.764Z,17.60
2017-12-26T08:12:23.916Z,17.60
2017-12-26T08:14:52.078Z,17.60
2017-12-26T08:17:20.243Z,17.60
2017-12-26T08:19:48.415Z,17.50
2017-12-26T08:22:17.542Z,17.60
2017-12-26T08:24:45.742Z,17.50
2017-12-26T08:27:14.920Z,17.60
2017-12-26T08:29:44.581Z,17.60
2017-12-26T08:32:12.732Z,17.60
2017-12-26T08:34:41.660Z,17.60
2017-12-26T08:37:09.910Z,17.60
2017-12-26T08:39:38.711Z,17.60
2017-12-26T08:42:06.871Z,17.60
2017-12-26T08:44:35.093Z,17.60
2017-12-26T08:47:03.250Z,17.60
2017-12-26T08:49:31.403Z,17.60
2017-12-26T08:51:59.606Z,17.60
2017-12-26T08:54:27.772Z,17.60
2017-12-26T08:56:56.256Z,17.60
2017-12-26T08:59:24.418Z,17.60
2017-12-26T09:01:52.573Z,17.60
2017-12-26T09:04:20.845Z,17.60
2017-12-26T09:06:49.781Z,17.60
2017-12-26T09:09:18.000Z,17.60
2017-12-26T09:11:47.250Z,17.60
2017-12-26T09:14:15.581Z,17.60
2017-12-26T09:16:44.515Z,17.60
2017-12-26T09:19:12.820Z,17.60
2017-12-26T09:21:40.975Z,17.60
2017-12-26T09:24:09.143Z,17.60
2017-12-26T09:26:37.394Z,17.60
2017-12-26T09:29:05.681Z,17.60
2017-12-26T09:31:33.859Z,17.60
2017-12-26T09:34:02.233Z,17.60
2017-12-26T09:36:30.405Z,17.60
2017-12-26T09:38:58.582Z,17.60
2017-12-26T09:41:26.735Z,17.60
2017-12-26T09:43:55.672Z,17.60
2017-12-26T09:46:23.845Z,17.60
2017-12-26T09:48:52.092Z,17.60
2017-12-26T09:51:20.256Z,17.60
2017-12-26T09:53:49.196Z,17.60
2017-12-26T09:56:17.414Z,17.60
2017-12-26T09:58:46.474Z,17.60
2017-12-26T10:01:14.643Z,17.60
2017-12-26T10:03:42.817Z,17.60
2017-12-26T10:06:10.981Z,17.60
2017-12-26T10:08:39.448Z,17.70
2017-12-26T10:11:07.582Z,17.60
2017-12-26T10:13:36.637Z,17.70
2017-12-26T10:16:04.844Z,17.60
2017-12-26T10:18:33.802Z,17.60
2017-12-26T10:21:01.978Z,17.60
2017-12-26T10:23:30.425Z,17.70
2017-12-26T10:25:58.611Z,17.70
2017-12-26T10:28:26.774Z,17.70
2017-12-26T10:30:55.373Z,17.70
2017-12-26T10:33:23.572Z,17.70
2017-12-26T10:35:51.807Z,17.70
2017-12-26T10:38:20.123Z,17.70
2017-12-26T10:40:48.274Z,17.70
2017-12-26T10:43:16.537Z,17.70
2017-12-26T10:45:45.193Z,17.70
2017-12-26T10:48:14.274Z,17.70
2017-12-26T10:50:42.433Z,17.70
2017-12-26T10:53:10.598Z,17.70
2017-12-26T10:55:38.775Z,17.70
2017-12-26T10:58:06.931Z,17.70
2017-12-26T11:00:35.375Z,17.80
2017-12-26T11:03:04.548Z,17.70
2017-12-26T11:05:32.875Z,17.70
2017-12-26T11:08:01.070Z,17.80
2017-12-26T11:10:29.232Z,17.80
2017-12-26T11:12:57.638Z,17.80
2017-12-26T11:15:25.810Z,17.80
2017-12-26T11:17:54.367Z,17.80
2017-12-26T11:20:22.543Z,17.80
2017-12-26T11:22:50.732Z,17.80
2017-12-26T11:25:19.063Z,17.80
2017-12-26T11:27:47.987Z,17.80
2017-12-26T11:30:16.167Z,17.80
2017-12-26T11:32:44.654Z,17.80
2017-12-26T11:35:12.828Z,17.80
2017-12-26T11:37:41.016Z,17.80
2017-12-26T11:40:10.075Z,17.80
2017-12-26T11:42:38.236Z,17.80
2017-12-26T11:45:07.162Z,17.80
2017-12-26T11:47:35.330Z,17.80
2017-12-26T11:50:03.493Z,17.80
2017-12-26T11:52:31.676Z,17.90
2017-12-26T11:54:59.823Z,17.90
2017-12-26T11:57:28.748Z,17.90
2017-12-26T11:59:56.722Z,17.90
2017-12-26T12:02:24.893Z,17.90
2017-12-26T12:04:53.035Z,17.90
2017-12-26T12:07:21.627Z,17.90
2017-12-26T12:09:50.082Z,17.90
2017-12-26T12:12:18.990Z,17.90
2017-12-26T12:14:47.219Z,17.90
2017-12-26T12:17:15.378Z,17.90
2017-12-26T12:19:43.734Z,17.90
2017-12-26T12:22:11.921Z,17.90
2017-12-26T12:24:40.848Z,17.90
2017-12-26T12:27:08.994Z,17.90
2017-12-26T12:29:37.176Z,17.90
2017-12-26T12:32:05.342Z,17.90
2017-12-26T12:34:33.521Z,18.00
2017-12-26T12:37:01.922Z,17.90
2017-12-26T12:39:30.390Z,17.90
2017-12-26T12:41:58.546Z,17.90
2017-12-26T12:44:26.895Z,18.00
2017-12-26T12:46:55.055Z,17.90
2017-12-26T12:49:23.966Z,17.90
2017-12-26T12:51:52.359Z,17.90
2017-12-26T12:54:20.550Z,17.90
2017-12-26T12:56:48.523Z,17.90
2017-12-26T12:59:16.692Z,17.90
2017-12-26T13:01:45.027Z,17.90
2017-12-26T13:04:13.968Z,17.90
2017-12-26T13:06:42.141Z,17.90
2017-12-26T13:09:10.305Z,17.90
2017-12-26T13:11:38.450Z,17.90
2017-12-26T13:14:06.618Z,17.90
2017-12-26T13:16:36.123Z,17.90
2017-12-26T13:19:05.538Z,17.90
2017-12-26T13:21:34.565Z,17.90
2017-12-26T13:24:02.666Z,17.90
2017-12-26T13:26:30.814Z,17.90
2017-12-26T13:28:59.074Z,17.90
2017-12-26T13:31:27.235Z,17.90
2017-12-26T13:33:56.227Z,17.90
2017-12-26T13:36:25.166Z,18.00
2017-12-26T13:38:53.316Z,17.90
2017-12-26T13:41:21.464Z,18.00
2017-12-26T13:43:50.394Z,17.90
2017-12-26T13:46:18.575Z,17.90
2017-12-26T13:48:46.782Z,17.90
2017-12-26T13:51:15.159Z,17.90
2017-12-26T13:53:43.442Z,17.90
2017-12-26T13:56:11.585Z,17.90
2017-12-26T13:58:39.750Z,17.90
2017-12-26T14:01:07.896Z,17.90
2017-12-26T14:03:36.088Z,17.90
2017-12-26T14:06:04.028Z,17.90
2017-12-26T14:08:32.946Z,17.90
2017-12-26T14:11:01.113Z,17.90
2017-12-26T14:13:29.301Z,17.90
2017-12-26T14:15:58.362Z,17.90
2017-12-26T14:18:27.304Z,17.90
2017-12-26T14:20:55.477Z,17.90
2017-12-26T14:23:23.731Z,17.90
2017-12-26T14:25:52.006Z,17.80
2017-12-26T14:28:20.003Z,17.80
2017-12-26T14:30:48.388Z,17.80
2017-12-26T14:33:16.540Z,17.80
2017-12-26T14:35:44.709Z,17.80
2017-12-26T14:38:12.866Z,17.80
2017-12-26T14:40:41.019Z,17.80
2017-12-26T14:43:10.193Z,17.80
2017-12-26T14:45:38.420Z,17.80
2017-12-26T14:48:06.740Z,17.80
2017-12-26T14:50:34.905Z,17.80
2017-12-26T14:53:03.059Z,17.80
2017-12-26T14:55:31.212Z,17.80
2017-12-26T14:58:00.152Z,17.80
2017-12-26T15:00:28.111Z,17.80
2017-12-26T15:02:56.266Z,17.80
2017-12-26T15:05:24.434Z,17.80
2017-12-26T15:07:52.592Z,17.80
2017-12-26T15:10:20.738Z,17.80
2017-12-26T15:12:48.794Z,17.80
2017-12-26T15:15:16.966Z,17.80
2017-12-26T15:17:44.933Z,17.80
2017-12-26T15:20:13.107Z,17.80
2017-12-26T15:22:41.085Z,17.70
2017-12-26T15:25:09.154Z,17.70
2017-12-26T15:27:37.139Z,17.80
2017-12-26T15:30:05.311Z,17.70
2017-12-26T15:32:33.462Z,17.70
2017-12-26T15:35:01.630Z,17.70
2017-12-26T15:37:29.874Z,17.70
2017-12-26T15:39:58.095Z,17.70
2017-12-26T15:42:26.271Z,17.70
2017-12-26T15:44:54.417Z,17.70
2017-12-26T15:47:22.579Z,17.70
2017-12-26T15:49:50.763Z,17.70
2017-12-26T15:52:18.912Z,17.70
2017-12-26T15:54:47.251Z,17.70
2017-12-26T15:57:15.532Z,17.70
2017-12-26T15:59:43.761Z,17.70
2017-12-26T16:02:11.898Z,17.70
2017-12-26T16:04:40.996Z,17.70
2017-12-26T16:07:09.727Z,17.70
2017-12-26T16:09:37.815Z,17.70
2017-12-26T16:12:05.992Z,17.70
2017-12-26T16:14:34.146Z,17.70
2017-12-26T16:17:02.384Z,17.70
2017-12-26T16:19:31.335Z,17.60
2017-12-26T16:21:59.507Z,17.60
2017-12-26T16:24:27.653Z,17.60
2017-12-26T16:26:56.171Z,17.60
2017-12-26T16:29:24.360Z,17.60
2017-12-26T16:31:53.299Z,17.60
2017-12-26T16:34:21.547Z,17.60
2017-12-26T16:36:50.536Z,17.60
2017-12-26T16:39:18.686Z,17.60
2017-12-26T16:41:46.878Z,17.60
2017-12-26T16:44:15.866Z,17.60
2017-12-26T16:46:44.039Z,17.60
2017-12-26T16:49:12.224Z,17.60
2017-12-26T16:51:41.129Z,17.60
2017-12-26T16:54:10.710Z,17.60
2017-12-26T16:56:38.889Z,17.60
2017-12-26T16:59:07.174Z,17.60
2017-12-26T17:01:36.111Z,17.60
2017-12-26T17:04:04.293Z,17.60
2017-12-26T17:06:32.442Z,17.60
2017-12-26T17:09:00.704Z,17.60
2017-12-26T17:11:29.554Z,17.60
2017-12-26T17:13:57.715Z,17.60
2017-12-26T17:16:25.885Z,17.60
2017-12-26T17:18:54.061Z,17.60
2017-12-26T17:21:22.228Z,17.60
2017-12-26T17:23:50.731Z,17.60
2017-12-26T17:26:18.912Z,17.60
2017-12-26T17:28:47.450Z,17.60
2017-12-26T17:31:15.620Z,17.60
2017-12-26T17:33:43.806Z,17.50
2017-12-26T17:36:12.159Z,17.50
2017-12-26T17:38:41.088Z,17.60
2017-12-26T17:41:09.262Z,17.60
2017-12-26T17:43:37.475Z,17.60
2017-12-26T17:46:05.617Z,17.50
2017-12-26T17:48:33.791Z,17.50
2017-12-26T17:51:01.943Z,17.50
2017-12-26T17:53:30.137Z,17.60
2017-12-26T17:55:58.324Z,17.50
2017-12-26T17:58:26.466Z,17.50
2017-12-26T18:00:54.625Z,17.50
2017-12-26T18:03:22.952Z,17.50
2017-12-26T18:05:51.253Z,17.50
2017-12-26T18:08:19.395Z,17.50
2017-12-26T18:10:47.700Z,17.50
2017-12-26T18:13:15.668Z,17.50
2017-12-26T18:15:43.979Z,17.50
2017-12-26T18:18:12.033Z,17.50
2017-12-26T18:20:41.202Z,17.50
2017-12-26T18:23:09.522Z,17.50
2017-12-26T18:25:37.696Z,17.50
2017-12-26T18:28:05.653Z,17.50
2017-12-26T18:30:34.558Z,17.50
2017-12-26T18:33:02.732Z,17.50
2017-12-26T18:35:30.888Z,17.40
2017-12-26T18:37:59.984Z,17.40
2017-12-26T18:40:28.322Z,17.40
2017-12-26T18:42:56.471Z,17.50
2017-12-26T18:45:24.631Z,17.50
2017-12-26T18:47:52.902Z,17.50
2017-12-26T18:50:21.366Z,17.40
2017-12-26T18:52:50.277Z,17.40
2017-12-26T18:55:18.463Z,17.40
2017-12-26T18:57:46.605Z,17.40
2017-12-26T19:00:15.565Z,17.40
2017-12-26T19:02:43.747Z,17.40
2017-12-26T19:05:11.892Z,17.40
2017-12-26T19:07:40.033Z,17.40
2017-12-26T19:10:08.263Z,17.40
2017-12-26T19:12:36.460Z,17.40
2017-12-26T19:15:05.090Z,17.40
2017-12-26T19:17:33.258Z,17.40
2017-12-26T19:20:01.414Z,17.40
2017-12-26T19:22:30.334Z,17.40
2017-12-26T19:24:58.512Z,17.40
2017-12-26T19:27:26.708Z,17.40
2017-12-26T19:29:54.903Z,17.40
2017-12-26T19:32:23.069Z,17.40
2017-12-26T19:34:51.233Z,17.40
2017-12-26T19:37:19.406Z,17.40
2017-12-26T19:39:47.591Z,17.40
2017-12-26T19:42:15.729Z,17.40
2017-12-26T19:44:43.873Z,17.40
2017-12-26T19:47:13.050Z,17.40
2017-12-26T19:49:41.478Z,17.40
2017-12-26T19:52:09.716Z,17.40
2017-12-26T19:54:38.957Z,17.40
2017-12-26T19:57:07.124Z,17.30
2017-12-26T19:59:35.511Z,17.30
2017-12-26T20:02:03.886Z,17.40
2017-12-26T20:04:32.145Z,17.40
2017-12-26T20:07:00.382Z,17.40
2017-12-26T20:09:28.567Z,17.30
2017-12-26T20:11:56.709Z,17.40
2017-12-26T20:14:25.215Z,17.30
2017-12-26T20:16:53.341Z,17.30
2017-12-26T20:19:21.491Z,17.30
2017-12-26T20:21:49.681Z,17.30
2017-12-26T20:24:17.861Z,17.30
2017-12-26T20:26:46.808Z,17.30
2017-12-26T20:29:20.006Z,17.30
2017-12-26T20:31:48.956Z,17.30
2017-12-26T20:34:17.147Z,17.30
2017-12-26T20:36:45.319Z,17.30
2017-12-26T20:39:13.466Z,17.30
2017-12-26T20:41:41.614Z,17.30
2017-12-26T20:44:09.783Z,17.30
2017-12-26T20:46:39.067Z,17.30
2017-12-26T20:49:08.208Z,17.30
2017-12-26T20:51:36.547Z,17.30
2017-12-26T20:54:05.483Z,17.30
2017-12-26T20:56:33.651Z,17.30
2017-12-26T20:59:01.938Z,17.30
2017-12-26T21:01:30.259Z,17.30
2017-12-26T21:03:58.406Z,17.40
2017-12-26T21:06:26.577Z,17.30
2017-12-26T21:08:54.745Z,17.30
2017-12-26T21:11:22.963Z,17.30
2017-12-26T21:13:51.125Z,17.30
2017-12-26T21:16:19.401Z,17.30
2017-12-26T21:18:47.939Z,17.30
2017-12-26T21:21:16.097Z,17.30
2017-12-26T21:23:44.257Z,17.30
2017-12-26T21:26:12.994Z,17.40
2017-12-26T21:28:41.735Z,17.30
2017-12-26T21:31:10.913Z,17.30
2017-12-26T21:33:39.147Z,17.30
2017-12-26T21:36:07.693Z,17.30
2017-12-26T21:38:38.246Z,17.30
2017-12-26T21:41:06.504Z,17.30
2017-12-26T21:43:34.803Z,17.30
2017-12-26T21:46:02.953Z,17.30
2017-12-26T21:48:32.023Z,17.30
2017-12-26T21:51:00.217Z,17.30
2017-12-26T21:53:29.557Z,17.40
2017-12-26T21:55:57.899Z,17.30
2017-12-26T21:58:26.134Z,17.30
2017-12-26T22:00:54.362Z,17.40
2017-12-26T22:03:22.547Z,17.30
2017-12-26T22:05:50.696Z,17.30
2017-12-26T22:08:19.968Z,17.30
2017-12-26T22:10:48.328Z,17.30
2017-12-26T22:13:16.537Z,17.40
2017-12-26T22:15:44.833Z,17.30
2017-12-26T22:18:13.274Z,17.40
2017-12-26T22:20:41.596Z,17.40
2017-12-26T22:23:10.101Z,17.30
2017-12-26T22:25:39.115Z,17.40
2017-12-26T22:28:07.290Z,17.40
2017-12-26T22:30:35.604Z,17.30
2017-12-26T22:33:04.848Z,17.30
2017-12-26T22:35:33.223Z,17.30
2017-12-26T22:38:01.491Z,17.30
2017-12-26T22:40:29.775Z,17.30
2017-12-26T22:42:58.014Z,17.30
2017-12-26T22:45:27.185Z,17.40
2017-12-26T22:47:55.768Z,17.30
2017-12-26T22:50:24.997Z,17.40
2017-12-26T22:52:53.925Z,17.40
2017-12-26T22:55:22.134Z,17.40
2017-12-26T22:57:50.297Z,17.40
2017-12-26T23:00:18.607Z,17.40
2017-12-26T23:02:46.909Z,17.40
2017-12-26T23:05:16.025Z,17.40
2017-12-26T23:07:44.017Z,17.40
2017-12-26T23:10:12.781Z,17.40
2017-12-26T23:12:41.407Z,17.40
2017-12-26T23:15:15.247Z,17.40
2017-12-26T23:31:17.823Z,17.40
2017-12-26T23:33:52.383Z,17.40
2017-12-26T23:36:26.214Z,17.40
2017-12-26T23:38:59.976Z,17.40
2017-12-26T23:41:33.706Z,17.40
2017-12-26T23:44:07.323Z,17.40
2017-12-26T23:46:41.302Z,17.40
2017-12-26T23:49:16.928Z,17.40
2017-12-26T23:51:50.689Z,17.40
2017-12-26T23:54:24.327Z,17.40
2017-12-26T23:56:58.191Z,17.40
